Time;durP1;ratioP1;P1;durP2;ratioP2;P2;SDS_P1;SDS_P2;PMS_P1;PMS_P2;Temp;Humidity;BMP_temperature;BMP_pressure;BME280_temperature;BME280_humidity;BME280_pressure;Samples;Min_cycle;Max_cycle;Signal;HPM_P1;HPM_P2
2023/05/26 00:07:58;;;;;;;27.95;6.47;;;8.00;99.90;;;;;;7394610;19;20098;-72
2023/05/26 00:10:25;;;;;;;28.38;6.93;;;8.00;99.90;;;;;;7396481;19;20470;-72
2023/05/26 00:12:55;;;;;;;22.15;5.43;;;7.90;99.90;;;;;;7398634;19;20103;-72
2023/05/26 00:15:25;;;;;;;27.73;6.45;;;7.90;99.90;;;;;;7396140;19;20007;-72
2023/05/26 00:17:53;;;;;;;30.33;7.35;;;7.90;99.90;;;;;;7395392;19;20014;-73
2023/05/26 00:23:33;;;;;;;25.98;6.60;;;7.90;99.90;;;;;;7397617;19;20017;-72
2023/05/26 00:29:54;;;;;;;30.45;7.18;;;7.80;99.90;;;;;;7394901;19;20026;-72
2023/05/26 00:32:23;;;;;;;21.15;5.85;;;7.70;99.90;;;;;;7399469;19;20006;-73
2023/05/26 00:35:10;;;;;;;22.55;6.63;;;7.70;99.90;;;;;;7396397;19;20032;-73
2023/05/26 00:37:37;;;;;;;22.25;7.63;;;7.60;99.90;;;;;;7393608;19;20035;-72
2023/05/26 00:40:04;;;;;;;29.30;6.05;;;7.60;99.90;;;;;;7392382;19;20030;-72
2023/05/26 00:42:52;;;;;;;22.10;6.55;;;7.60;99.90;;;;;;7396457;19;20383;-73
2023/05/26 00:45:31;;;;;;;28.98;6.10;;;7.60;99.90;;;;;;7396732;19;20013;-73
2023/05/26 00:52:16;;;;;;;22.15;6.65;;;7.50;99.90;;;;;;7395305;19;20340;-73
2023/05/26 01:09:21;;;;;;;29.13;7.07;;;7.40;99.90;;;;;;7361815;19;20039;-64
2023/05/26 01:11:56;;;;;;;22.95;5.95;;;7.30;99.90;;;;;;7368585;19;20019;-64
2023/05/26 01:14:47;;;;;;;27.08;6.35;;;7.30;99.90;;;;;;7368088;19;20021;-63
2023/05/26 01:17:18;;;;;;;;;;;7.30;99.90;;;;;;7373368;19;20078;-64
2023/05/26 01:20:07;;;;;;;26.00;6.40;;;7.30;99.90;;;;;;7379356;19;20354;-72
2023/05/26 01:22:47;;;;;;;26.27;7.32;;;7.20;99.90;;;;;;7396798;19;20014;-73
2023/05/26 01:25:55;;;;;;;31.67;6.40;;;7.20;99.90;;;;;;7395468;19;20402;-72
2023/05/26 01:28:26;;;;;;;28.33;7.03;;;7.20;99.90;;;;;;7384901;19;20455;-73
2023/05/26 01:30:53;;;;;;;24.02;6.57;;;7.20;99.90;;;;;;7392058;19;20014;-72
2023/05/26 01:33:21;;;;;;;28.95;7.07;;;7.10;99.90;;;;;;7388170;19;20029;-73
2023/05/26 01:35:47;;;;;;;26.00;6.53;;;7.10;99.90;;;;;;7394446;19;20044;-73
2023/05/26 01:38:14;;;;;;;28.27;6.40;;;7.10;99.90;;;;;;7397975;19;20023;-73
2023/05/26 01:40:43;;;;;;;28.13;6.13;;;7.10;99.90;;;;;;7395745;19;20047;-73
2023/05/26 01:43:41;;;;;;;27.55;7.82;;;7.10;99.90;;;;;;7393735;19;20450;-73
2023/05/26 01:46:29;;;;;;;29.58;7.15;;;7.00;99.90;;;;;;7398875;19;20010;-72
2023/05/26 01:48:58;;;;;;;20.75;5.85;;;7.10;99.90;;;;;;7382595;19;20566;-63
2023/05/26 01:51:28;;;;;;;30.88;7.50;;;7.00;99.90;;;;;;7364363;19;20022;-63
2023/05/26 01:53:57;;;;;;;25.35;7.63;;;7.00;99.90;;;;;;7371199;19;20025;-64
2023/05/26 01:56:25;;;;;;;23.45;6.35;;;6.90;99.90;;;;;;7368955;19;20035;-64
2023/05/26 01:58:53;;;;;;;29.40;7.05;;;6.90;99.90;;;;;;7363984;19;20019;-63
2023/05/26 02:01:19;;;;;;;25.33;6.80;;;6.90;99.90;;;;;;7360792;19;20018;-64
2023/05/26 02:03:45;;;;;;;27.00;6.70;;;6.90;99.90;;;;;;7362106;19;20109;-62
2023/05/26 02:06:12;;;;;;;28.83;6.25;;;6.90;99.90;;;;;;7362887;19;20051;-63
2023/05/26 02:08:38;;;;;;;28.55;6.82;;;6.90;99.90;;;;;;7359213;19;20071;-63
2023/05/26 02:11:05;;;;;;;23.67;6.85;;;6.90;99.90;;;;;;7358335;19;20022;-63
2023/05/26 02:13:31;;;;;;;27.42;6.93;;;6.80;99.90;;;;;;7358244;19;20025;-63
2023/05/26 02:15:57;;;;;;;25.38;6.00;;;6.80;99.90;;;;;;7356977;19;20147;-63
2023/05/26 02:18:24;;;;;;;19.27;6.88;;;6.80;99.90;;;;;;7359469;19;20108;-63
2023/05/26 02:20:51;;;;;;;32.85;8.10;;;6.80;99.90;;;;;;7358184;19;20105;-63
2023/05/26 02:23:17;;;;;;;31.23;7.28;;;6.80;99.90;;;;;;7360934;19;20022;-62
2023/05/26 02:25:44;;;;;;;26.75;6.72;;;6.80;99.90;;;;;;7356961;19;20026;-64
2023/05/26 02:28:15;;;;;;;30.80;7.10;;;6.80;99.90;;;;;;7357714;19;20041;-63
2023/05/26 02:30:41;;;;;;;26.50;5.50;;;6.70;99.90;;;;;;7360058;19;20018;-62
2023/05/26 02:33:09;;;;;;;21.40;6.60;;;6.70;99.90;;;;;;7358475;19;20023;-63
2023/05/26 02:35:36;;;;;;;26.73;6.95;;;6.60;99.90;;;;;;7359218;19;20062;-63
2023/05/26 02:38:03;;;;;;;23.58;6.78;;;6.60;99.90;;;;;;7361935;19;20022;-63
2023/05/26 02:40:29;;;;;;;22.92;6.90;;;6.60;99.90;;;;;;7362985;19;20025;-63
2023/05/26 02:42:55;;;;;;;24.67;6.15;;;6.60;99.90;;;;;;7363529;19;20015;-63
2023/05/26 02:45:21;;;;;;;23.38;6.75;;;6.50;99.90;;;;;;7363536;19;20018;-63
2023/05/26 02:47:48;;;;;;;21.25;5.57;;;6.50;99.90;;;;;;7361810;19;20498;-63
2023/05/26 02:50:14;;;;;;;28.95;7.45;;;6.50;99.90;;;;;;7362688;19;20058;-63
2023/05/26 02:52:40;;;;;;;32.30;7.05;;;6.50;99.90;;;;;;7359606;19;20014;-63
2023/05/26 02:55:10;;;;;;;23.55;7.13;;;6.50;99.90;;;;;;7365444;19;21129;-63
2023/05/26 02:57:36;;;;;;;30.75;7.57;;;6.50;99.90;;;;;;7358676;19;20011;-63
2023/05/26 03:00:07;;;;;;;28.50;6.90;;;6.50;99.90;;;;;;7364655;19;20513;-62
2023/05/26 03:02:33;;;;;;;25.33;6.32;;;6.40;99.90;;;;;;7355580;19;20025;-63
2023/05/26 03:04:59;;;;;;;28.45;7.10;;;6.40;99.90;;;;;;7360740;19;20031;-63
2023/05/26 03:07:26;;;;;;;26.35;6.95;;;6.40;99.90;;;;;;7356932;19;20631;-63
2023/05/26 03:09:53;;;;;;;21.67;6.43;;;6.40;99.90;;;;;;7362801;19;20022;-63
2023/05/26 03:12:19;;;;;;;36.83;6.63;;;6.40;99.90;;;;;;7363356;19;20809;-73
2023/05/26 03:14:48;;;;;;;33.53;7.07;;;6.40;99.90;;;;;;7371455;19;20018;-73
2023/05/26 03:17:16;;;;;;;22.48;7.30;;;6.40;99.90;;;;;;7375303;19;20014;-73
2023/05/26 03:19:44;;;;;;;32.03;6.65;;;6.40;99.90;;;;;;7375125;19;20044;-73
2023/05/26 03:22:11;;;;;;;30.13;7.93;;;6.40;99.90;;;;;;7376221;19;20010;-73
2023/05/26 03:24:38;;;;;;;26.17;7.40;;;6.30;99.90;;;;;;7366307;19;20019;-73
2023/05/26 03:27:05;;;;;;;27.40;6.93;;;6.40;99.90;;;;;;7368145;19;21272;-74
2023/05/26 03:29:33;;;;;;;27.02;7.18;;;6.40;99.90;;;;;;7368411;19;20367;-74
2023/05/26 03:31:59;;;;;;;27.73;8.15;;;6.40;99.90;;;;;;7367343;19;20055;-73
2023/05/26 03:34:27;;;;;;;29.30;6.47;;;6.50;99.90;;;;;;7369845;19;20102;-72
2023/05/26 03:36:56;;;;;;;35.55;7.78;;;6.60;99.90;;;;;;7376671;19;20106;-73
2023/05/26 03:39:26;;;;;;;29.73;6.80;;;6.50;99.90;;;;;;7374427;19;20022;-63
2023/05/26 03:41:56;;;;;;;27.35;6.95;;;6.60;99.90;;;;;;7369172;19;20457;-62
2023/05/26 03:44:24;;;;;;;26.85;7.53;;;6.60;99.90;;;;;;7369030;19;20018;-62
2023/05/26 03:46:51;;;;;;;24.85;7.22;;;6.60;99.90;;;;;;7369163;19;20022;-63
2023/05/26 03:49:17;;;;;;;32.50;7.47;;;6.60;99.90;;;;;;7369823;19;20031;-64
2023/05/26 03:51:44;;;;;;;30.27;7.68;;;6.60;99.90;;;;;;7368500;19;20023;-63
2023/05/26 03:54:10;;;;;;;24.77;6.88;;;6.70;99.90;;;;;;7373301;19;20543;-63
2023/05/26 03:56:37;;;;;;;26.15;7.55;;;6.60;99.90;;;;;;7377334;19;20086;-73
2023/05/26 03:59:06;;;;;;;29.92;7.03;;;6.60;99.90;;;;;;7377372;19;20482;-74
2023/05/26 04:01:36;;;;;;;27.45;7.13;;;6.70;99.90;;;;;;7377497;19;20014;-74
2023/05/26 04:04:02;;;;;;;24.90;6.13;;;6.70;99.90;;;;;;7372674;19;20014;-73
2023/05/26 04:06:31;;;;;;;26.73;6.70;;;6.70;99.90;;;;;;7376429;19;20662;-73
2023/05/26 04:09:00;;;;;;;24.80;7.10;;;6.70;99.90;;;;;;7374131;19;20151;-73
2023/05/26 04:11:26;;;;;;;31.30;7.03;;;6.70;99.90;;;;;;7372325;19;20015;-73
2023/05/26 04:13:53;;;;;;;26.20;6.47;;;6.70;99.90;;;;;;7372862;19;20014;-73
2023/05/26 04:16:19;;;;;;;22.77;6.30;;;6.80;99.90;;;;;;7376695;19;20745;-73
2023/05/26 04:18:46;;;;;;;28.85;7.18;;;6.80;99.90;;;;;;7374726;19;20019;-74
2023/05/26 04:21:12;;;;;;;25.25;7.70;;;6.80;99.90;;;;;;7373741;19;20046;-74
2023/05/26 04:23:38;;;;;;;26.40;7.35;;;6.80;99.90;;;;;;7370910;19;20894;-74
2023/05/26 04:26:05;;;;;;;27.90;7.28;;;6.80;99.90;;;;;;7370691;19;20964;-74
2023/05/26 04:28:52;;;;;;;29.02;7.53;;;6.90;99.90;;;;;;7353187;19;20037;-74
2023/05/26 04:31:30;;;;;;;29.38;6.75;;;6.90;99.90;;;;;;7371047;19;20554;-74
2023/05/26 04:34:06;;;;;;;29.73;6.30;;;7.00;99.90;;;;;;7369115;19;20018;-74
2023/05/26 04:36:41;;;;;;;37.47;7.13;;;7.10;99.90;;;;;;7369216;19;20051;-73
2023/05/26 04:39:09;;;;;;;29.55;6.50;;;7.10;99.90;;;;;;7370037;19;20031;-74
2023/05/26 04:41:35;;;;;;;23.15;6.45;;;7.20;99.90;;;;;;7369395;19;20018;-74
2023/05/26 04:44:02;;;;;;;21.10;5.72;;;7.30;99.90;;;;;;7368251;19;20017;-73
2023/05/26 04:46:28;;;;;;;26.38;6.82;;;7.30;99.90;;;;;;7368878;19;20670;-74
2023/05/26 04:48:56;;;;;;;31.10;7.18;;;7.50;99.90;;;;;;7367617;19;20127;-74
2023/05/26 04:51:25;;;;;;;26.92;7.03;;;7.60;99.90;;;;;;7380169;19;20049;-74
2023/05/26 04:53:52;;;;;;;28.50;6.93;;;7.60;99.90;;;;;;7375328;19;20010;-74
2023/05/26 04:56:18;;;;;;;37.83;7.93;;;7.70;99.90;;;;;;7378002;19;20566;-74
2023/05/26 04:58:52;;;;;;;25.95;7.10;;;7.80;99.90;;;;;;7373450;19;20011;-74
2023/05/26 05:01:18;;;;;;;24.55;6.82;;;7.90;99.90;;;;;;7378425;19;20019;-74
2023/05/26 05:04:12;;;;;;;24.42;6.40;;;8.00;99.90;;;;;;7374403;19;20018;-74
2023/05/26 05:06:47;;;;;;;23.25;7.10;;;8.20;99.90;;;;;;7376604;19;20026;-73
2023/05/26 05:09:13;;;;;;;29.35;6.90;;;8.40;99.90;;;;;;7370026;19;20030;-73
2023/05/26 05:11:40;;;;;;;32.88;7.80;;;8.50;99.90;;;;;;7374960;19;20026;-73
2023/05/26 05:14:07;;;;;;;24.15;7.03;;;8.70;99.90;;;;;;7377092;19;20015;-73
2023/05/26 05:16:33;;;;;;;24.10;6.65;;;8.90;99.90;;;;;;7374984;19;20023;-74
2023/05/26 05:18:59;;;;;;;28.58;6.57;;;9.10;99.90;;;;;;7374707;19;20020;-73
2023/05/26 05:21:25;;;;;;;31.35;6.25;;;9.30;99.90;;;;;;7372477;19;20011;-75
2023/05/26 05:23:55;;;;;;;23.52;6.45;;;9.50;99.90;;;;;;7372615;19;20042;-74
2023/05/26 05:26:22;;;;;;;30.40;7.20;;;9.60;99.90;;;;;;7373874;19;20026;-73
2023/05/26 05:28:49;;;;;;;28.73;5.97;;;9.90;99.90;;;;;;7373447;19;20050;-74
2023/05/26 05:31:25;;;;;;;25.65;6.13;;;10.10;99.90;;;;;;7375573;19;20011;-74
2023/05/26 05:33:52;;;;;;;22.42;6.65;;;10.20;99.90;;;;;;7373966;19;20018;-74
2023/05/26 05:36:18;;;;;;;21.90;5.63;;;10.40;99.90;;;;;;7377492;19;20041;-74
2023/05/26 05:38:45;;;;;;;28.15;6.95;;;10.50;99.90;;;;;;7372146;19;20025;-74
2023/05/26 05:41:14;;;;;;;27.48;6.30;;;10.80;99.90;;;;;;7378407;19;20786;-74
2023/05/26 05:43:40;;;;;;;28.50;6.72;;;11.00;99.90;;;;;;7375594;19;20046;-74
2023/05/26 05:46:06;;;;;;;25.88;5.45;;;11.10;99.90;;;;;;7376731;19;20057;-74
2023/05/26 05:48:39;;;;;;;27.95;6.45;;;11.30;99.90;;;;;;7374409;19;20660;-74
2023/05/26 05:51:10;;;;;;;31.25;6.93;;;11.50;99.90;;;;;;7377406;19;20065;-67
2023/05/26 05:53:36;;;;;;;22.73;6.78;;;11.60;99.90;;;;;;7373761;19;20486;-74
2023/05/26 05:56:03;;;;;;;26.33;6.50;;;11.70;99.90;;;;;;7375269;19;20022;-73
2023/05/26 05:58:29;;;;;;;33.08;14.00;;;11.90;99.90;;;;;;7375068;19;20015;-73
2023/05/26 06:00:56;;;;;;;28.17;9.02;;;12.00;99.90;;;;;;7375830;19;20042;-73
2023/05/26 06:03:23;;;;;;;24.38;10.15;;;12.00;99.90;;;;;;7374881;19;20018;-73
2023/05/26 06:05:51;;;;;;;22.70;6.05;;;12.40;99.90;;;;;;7376113;19;20019;-74
2023/05/26 06:08:18;;;;;;;28.27;11.02;;;12.30;99.90;;;;;;7374016;19;20052;-73
2023/05/26 06:10:44;;;;;;;28.77;7.20;;;12.40;99.90;;;;;;7372473;19;20029;-73
2023/05/26 06:13:11;;;;;;;26.35;9.40;;;12.30;99.90;;;;;;7374820;19;20032;-74
2023/05/26 06:15:37;;;;;;;30.00;7.38;;;12.50;99.90;;;;;;7374295;19;20074;-74
2023/05/26 06:18:04;;;;;;;28.42;6.63;;;12.50;99.90;;;;;;7373821;19;20497;-73
2023/05/26 06:20:32;;;;;;;28.52;10.43;;;12.70;99.90;;;;;;7375426;19;20023;-73
2023/05/26 06:22:58;;;;;;;23.70;6.85;;;12.80;99.90;;;;;;7375761;19;20768;-70
2023/05/26 06:25:24;;;;;;;26.83;9.82;;;13.00;99.90;;;;;;7374530;19;20026;-69
2023/05/26 06:27:53;;;;;;;57.92;37.22;;;13.00;99.90;;;;;;7375097;19;20028;-72
2023/05/26 06:30:19;;;;;;;37.45;14.25;;;13.30;99.90;;;;;;7373741;19;20018;-66
2023/05/26 06:32:49;;;;;;;36.10;17.33;;;13.40;99.90;;;;;;7373546;19;20052;-66
2023/05/26 06:35:16;;;;;;;39.58;21.02;;;13.40;99.90;;;;;;7374595;19;20027;-66
2023/05/26 06:37:45;;;;;;;24.85;11.35;;;13.50;99.90;;;;;;7387076;19;20443;-64
2023/05/26 06:40:12;;;;;;;21.73;7.18;;;13.60;99.90;;;;;;7386362;19;20666;-65
2023/05/26 06:42:41;;;;;;;19.73;6.60;;;14.00;99.90;;;;;;7376665;19;20114;-61
2023/05/26 06:45:09;;;;;;;19.40;5.70;;;14.20;99.90;;;;;;7374896;19;20073;-61
2023/05/26 06:47:37;;;;;;;42.53;24.25;;;14.40;99.90;;;;;;7372633;19;20018;-69
2023/05/26 06:50:10;;;;;;;115.97;99.55;;;14.50;99.90;;;;;;7375543;19;20058;-65
2023/05/26 06:52:37;;;;;;;49.97;30.42;;;14.70;99.90;;;;;;7382129;19;20023;-65
2023/05/26 06:55:04;;;;;;;27.50;6.55;;;14.90;99.90;;;;;;7375763;19;20018;-69
2023/05/26 06:57:31;;;;;;;28.08;6.40;;;15.00;99.90;;;;;;7374105;19;20030;-71
2023/05/26 06:59:58;;;;;;;21.00;5.63;;;15.00;99.90;;;;;;7378111;19;20120;-66
2023/05/26 07:02:25;;;;;;;23.88;6.22;;;15.10;99.90;;;;;;7379290;19;20017;-65
2023/05/26 07:05:03;;;;;;;22.05;5.65;;;15.10;99.90;;;;;;7381003;19;20018;-64
2023/05/26 07:07:29;;;;;;;18.75;7.70;;;15.50;99.90;;;;;;7376407;19;20362;-62
2023/05/26 07:09:55;;;;;;;37.78;9.75;;;15.60;99.90;;;;;;7378202;19;20643;-65
2023/05/26 07:12:22;;;;;;;50.45;13.18;;;15.40;99.90;;;;;;7375427;19;20094;-65
2023/05/26 07:14:51;;;;;;;42.42;11.68;;;15.60;99.90;;;;;;7375068;19;20040;-66
2023/05/26 07:17:19;;;;;;;77.95;20.02;;;15.80;99.90;;;;;;7374663;19;20015;-65
2023/05/26 07:19:47;;;;;;;61.42;16.67;;;15.60;99.90;;;;;;7374583;19;20028;-66
2023/05/26 07:22:14;;;;;;;35.10;8.80;;;15.50;99.90;;;;;;7387681;19;20524;-69
2023/05/26 07:25:04;;;;;;;32.63;8.02;;;15.40;99.90;;;;;;7393545;19;20474;-69
2023/05/26 07:27:37;;;;;;;35.40;11.05;;;15.20;99.90;;;;;;7386688;19;20022;-63
2023/05/26 07:30:04;;;;;;;93.45;34.25;;;15.40;99.90;;;;;;7373976;19;20022;-66
2023/05/26 07:32:30;;;;;;;29.90;9.18;;;15.70;99.90;;;;;;7373527;19;20030;-67
2023/05/26 07:34:56;;;;;;;27.75;13.18;;;15.60;99.90;;;;;;7374085;19;20020;-74
2023/05/26 07:37:23;;;;;;;24.02;7.60;;;15.80;99.90;;;;;;7373327;19;20018;-74
2023/05/26 07:39:49;;;;;;;23.02;9.18;;;16.10;99.90;;;;;;7372217;19;21844;-73
2023/05/26 07:42:15;;;;;;;22.33;8.80;;;16.20;99.90;;;;;;7371161;19;20018;-76
2023/05/26 07:44:42;;;;;;;18.38;7.72;;;16.10;99.90;;;;;;7370961;19;20113;-75
2023/05/26 07:47:12;;;;;;;19.33;6.43;;;16.30;99.90;;;;;;7373375;19;20048;-69
2023/05/26 07:49:38;;;;;;;77.90;62.35;;;16.60;99.90;;;;;;7371274;19;20052;-72
2023/05/26 07:52:04;;;;;;;23.40;12.48;;;16.60;99.90;;;;;;7372770;19;20018;-71
2023/05/26 07:54:30;;;;;;;30.77;16.52;;;16.70;99.90;;;;;;7369483;19;20030;-71
2023/05/26 07:56:57;;;;;;;22.40;13.05;;;16.90;96.70;;;;;;7373046;19;20512;-72
2023/05/26 07:59:23;;;;;;;23.98;11.90;;;16.90;99.90;;;;;;7371265;19;20018;-72
2023/05/26 08:01:49;;;;;;;17.77;10.13;;;17.10;99.50;;;;;;7374393;19;20790;-74
2023/05/26 08:04:15;;;;;;;22.85;9.57;;;17.40;98.60;;;;;;7375511;19;20513;-75
2023/05/26 08:06:41;;;;;;;20.02;7.85;;;17.10;96.80;;;;;;7370794;19;20044;-78
2023/05/26 08:09:08;;;;;;;26.85;9.20;;;17.40;98.00;;;;;;7372864;19;20018;-64
2023/05/26 08:11:34;;;;;;;20.55;6.80;;;17.50;91.00;;;;;;7369303;19;20027;-67
2023/05/26 08:14:00;;;;;;;15.55;6.00;;;17.40;83.60;;;;;;7374305;19;20104;-67
2023/05/26 08:16:26;;;;;;;16.23;5.55;;;17.80;80.10;;;;;;7367777;19;20037;-70
2023/05/26 08:18:53;;;;;;;18.15;5.20;;;17.80;76.90;;;;;;7374140;19;20029;-67
2023/05/26 08:21:19;;;;;;;21.05;5.55;;;17.60;73.00;;;;;;7375091;19;20037;-67
2023/05/26 08:23:46;;;;;;;15.93;4.78;;;17.60;75.00;;;;;;7374367;19;20018;-68
2023/05/26 08:26:12;;;;;;;15.82;4.00;;;17.80;69.80;;;;;;7374329;19;20801;-67
2023/05/26 08:28:41;;;;;;;30.00;4.93;;;18.00;68.10;;;;;;7372759;19;20108;-66
2023/05/26 08:31:08;;;;;;;20.08;5.10;;;18.10;67.00;;;;;;7369025;19;20024;-67
2023/05/26 08:33:34;;;;;;;14.13;4.38;;;18.00;65.90;;;;;;7370350;19;20026;-67
2023/05/26 08:36:00;;;;;;;15.55;4.63;;;17.80;66.90;;;;;;7375262;19;20100;-74
2023/05/26 08:38:27;;;;;;;25.98;5.70;;;18.30;68.90;;;;;;7372457;19;20363;-75
2023/05/26 08:41:24;;;;;;;61.58;45.08;;;18.40;68.10;;;;;;7378014;19;20513;-76
2023/05/26 08:43:55;;;;;;;30.20;14.02;;;18.40;62.50;;;;;;7395892;19;20074;-76
2023/05/26 08:46:22;;;;;;;19.25;10.65;;;18.50;65.40;;;;;;7393099;19;20021;-75
2023/05/26 08:48:53;;;;;;;48.70;36.38;;;18.40;66.30;;;;;;7390169;19;20014;-74
2023/05/26 08:51:19;;;;;;;34.75;13.93;;;18.10;62.40;;;;;;7386308;19;20036;-70
2023/05/26 08:53:48;;;;;;;19.80;13.40;;;18.70;64.10;;;;;;7373862;19;20018;-71
2023/05/26 08:56:15;;;;;;;13.75;4.50;;;19.10;64.50;;;;;;7370736;19;20998;-66
2023/05/26 08:58:43;;;;;;;22.42;14.20;;;18.90;61.90;;;;;;7370111;19;22019;-66
2023/05/26 09:01:10;;;;;;;21.80;9.38;;;18.70;63.10;;;;;;7368392;19;20022;-68
2023/05/26 09:03:36;;;;;;;75.90;10.50;;;19.10;62.50;;;;;;7372443;19;20031;-65
2023/05/26 09:06:03;;;;;;;17.55;5.30;;;19.10;58.70;;;;;;7371139;19;20024;-66
2023/05/26 09:08:29;;;;;;;14.75;4.40;;;19.00;59.40;;;;;;7366681;19;20864;-65
2023/05/26 09:10:56;;;;;;;15.70;4.53;;;18.90;58.30;;;;;;7368061;19;20018;-65
2023/05/26 09:13:23;;;;;;;14.40;4.70;;;19.10;58.50;;;;;;7369346;19;20825;-65
2023/05/26 09:15:51;;;;;;;13.55;4.63;;;19.10;58.40;;;;;;7369688;19;20022;-65
2023/05/26 09:18:18;;;;;;;32.28;24.90;;;19.00;56.80;;;;;;7369007;19;20022;-67
2023/05/26 09:20:49;;;;;;;53.42;46.22;;;19.40;58.50;;;;;;7371819;19;20055;-69
2023/05/26 09:23:16;;;;;;;38.67;23.45;;;19.30;57.50;;;;;;7371820;19;20451;-68
2023/05/26 09:25:45;;;;;;;23.70;10.27;;;19.50;58.30;;;;;;7366216;19;20106;-67
2023/05/26 09:28:12;;;;;;;26.65;7.30;;;19.60;56.90;;;;;;7369089;19;20023;-73
2023/05/26 09:30:44;;;;;;;16.25;5.13;;;19.40;55.90;;;;;;7365486;19;20055;-71
2023/05/26 09:33:16;;;;;;;18.77;5.97;;;19.40;54.90;;;;;;7365169;19;20026;-74
2023/05/26 09:35:45;;;;;;;17.70;5.50;;;19.50;55.70;;;;;;7368453;19;20788;-71
2023/05/26 09:38:14;;;;;;;16.15;5.97;;;19.60;55.60;;;;;;7375620;19;20014;-71
2023/05/26 09:40:45;;;;;;;14.88;5.07;;;19.30;56.30;;;;;;7377127;19;20074;-71
2023/05/26 09:43:11;;;;;;;13.87;5.83;;;19.60;54.70;;;;;;7376163;19;20030;-71
2023/05/26 09:45:39;;;;;;;15.57;4.93;;;19.70;55.20;;;;;;7374591;19;20026;-71
2023/05/26 09:48:08;;;;;;;12.55;4.95;;;19.90;54.90;;;;;;7376492;19;20978;-72
2023/05/26 09:50:36;;;;;;;8.93;4.20;;;19.90;53.50;;;;;;7372580;19;20026;-72
2023/05/26 09:53:04;;;;;;;12.75;4.07;;;20.40;54.10;;;;;;7376149;19;20018;-73
2023/05/26 09:55:31;;;;;;;10.00;3.47;;;20.40;52.70;;;;;;7373401;19;20098;-70
2023/05/26 09:58:04;;;;;;;12.70;3.95;;;20.30;52.50;;;;;;7369132;19;20015;-64
2023/05/26 10:00:34;;;;;;;13.25;4.68;;;20.10;51.50;;;;;;7377263;19;20015;-66
2023/05/26 10:03:04;;;;;;;11.23;4.85;;;19.70;51.80;;;;;;7380123;19;20525;-62
2023/05/26 10:05:38;;;;;;;18.53;5.87;;;19.90;52.90;;;;;;7375804;19;20104;-64
2023/05/26 10:08:06;;;;;;;16.85;5.47;;;19.80;52.50;;;;;;7376337;19;20086;-66
2023/05/26 10:10:34;;;;;;;13.20;4.10;;;19.80;53.00;;;;;;7372688;19;20782;-64
2023/05/26 10:13:02;;;;;;;15.70;6.45;;;20.10;53.00;;;;;;7378298;19;20052;-62
2023/05/26 10:15:28;;;;;;;14.93;6.70;;;19.80;51.20;;;;;;7378182;19;20030;-63
2023/05/26 10:17:58;;;;;;;14.65;3.28;;;19.60;51.90;;;;;;7369305;19;20031;-66
2023/05/26 10:20:24;;;;;;;22.80;14.55;;;20.30;51.60;;;;;;7371359;19;20026;-72
2023/05/26 10:23:01;;;;;;;21.98;13.07;;;19.90;52.30;;;;;;7372118;19;20025;-80
2023/05/26 10:25:54;;;;;;;15.50;5.20;;;20.70;52.10;;;;;;7377330;19;20620;-80
2023/05/26 10:28:34;;;;;;;11.93;7.20;;;21.20;50.70;;;;;;7376625;19;20086;-80
2023/05/26 10:31:01;;;;;;;20.20;10.02;;;21.70;51.60;;;;;;7371407;19;22180;-67
2023/05/26 10:33:42;;;;;;;20.65;13.73;;;22.10;51.20;;;;;;7370250;19;20026;-67
2023/05/26 10:36:16;;;;;;;15.48;5.72;;;22.30;48.40;;;;;;7375885;19;20011;-67
2023/05/26 10:38:45;;;;;;;12.75;6.60;;;22.10;48.50;;;;;;7371878;19;20165;-67
2023/05/26 10:41:14;;;;;;;14.55;7.55;;;22.40;49.60;;;;;;7371435;19;20474;-66
2023/05/26 10:43:42;;;;;;;12.70;3.80;;;22.90;49.50;;;;;;7368394;19;20038;-67
2023/05/26 10:46:08;;;;;;;14.07;5.47;;;22.80;48.50;;;;;;7374540;19;20018;-80
2023/05/26 10:48:40;;;;;;;11.80;3.78;;;23.00;48.90;;;;;;7373196;19;20014;-74
2023/05/26 10:51:06;;;;;;;;;;;23.00;48.90;;;;;;7374886;19;20023;-79
2023/05/26 10:53:34;;;;;;;111.60;100.05;;;23.10;48.60;;;;;;7372708;19;19934;-67
2023/05/26 10:56:08;;;;;;;31.15;18.67;;;23.10;49.20;;;;;;7374511;19;20371;-66
2023/05/26 10:58:50;;;;;;;20.15;15.65;;;22.90;48.30;;;;;;7373116;19;20014;-66
2023/05/26 11:01:22;;;;;;;15.63;6.95;;;23.10;48.60;;;;;;7371545;19;20668;-65
2023/05/26 11:04:08;;;;;;;13.98;4.82;;;22.90;48.90;;;;;;7371628;19;20015;-65
2023/05/26 11:07:12;;;;;;;13.00;5.22;;;22.80;48.50;;;;;;7375176;19;20038;-65
2023/05/26 11:09:53;;;;;;;17.73;5.22;;;22.90;49.00;;;;;;7372271;19;20031;-65
2023/05/26 11:12:19;;;;;;;;;;;23.20;48.50;;;;;;7374420;19;20548;-65
2023/05/26 11:14:46;;;;;;;13.15;4.95;;;23.00;47.80;;;;;;7369237;19;20013;-65
2023/05/26 11:17:13;;;;;;;10.20;3.60;;;22.90;48.70;;;;;;7371908;19;20046;-65
2023/05/26 11:19:39;;;;;;;15.40;4.75;;;22.60;48.10;;;;;;7370108;19;20023;-65
2023/05/26 11:22:08;;;;;;;14.18;4.07;;;22.90;49.30;;;;;;7372121;19;20082;-65
2023/05/26 11:24:35;;;;;;;12.93;4.15;;;23.00;48.00;;;;;;7368780;19;20034;-65
2023/05/26 11:27:03;;;;;;;14.00;4.43;;;23.30;48.10;;;;;;7377635;19;20014;-64
2023/05/26 11:29:30;;;;;;;13.32;3.55;;;23.30;47.90;;;;;;7368427;19;20022;-65
2023/05/26 11:31:56;;;;;;;11.27;4.05;;;23.50;46.70;;;;;;7375114;19;20466;-65
2023/05/26 11:34:23;;;;;;;13.10;4.45;;;23.40;46.90;;;;;;7373519;19;20018;-65
2023/05/26 11:36:53;;;;;;;12.55;4.75;;;23.20;47.10;;;;;;7373994;19;20038;-65
2023/05/26 11:39:21;;;;;;;18.50;4.63;;;23.20;47.00;;;;;;7369435;19;20496;-64
2023/05/26 11:41:49;;;;;;;12.45;3.72;;;23.50;47.30;;;;;;7370025;19;20023;-64
2023/05/26 11:44:15;;;;;;;14.82;4.03;;;23.50;46.60;;;;;;7364332;19;20050;-64
2023/05/26 11:46:43;;;;;;;13.48;4.28;;;23.20;46.10;;;;;;7370780;19;20052;-69
2023/05/26 11:49:17;;;;;;;13.02;3.70;;;23.40;47.60;;;;;;7368633;19;20018;-68
2023/05/26 11:51:50;;;;;;;33.85;28.83;;;23.40;47.40;;;;;;7371000;19;20038;-70
2023/05/26 11:54:18;;;;;;;16.42;7.90;;;23.50;46.50;;;;;;7374595;19;20112;-77
2023/05/26 11:56:46;;;;;;;14.93;6.57;;;23.60;45.80;;;;;;7369632;19;20022;-75
2023/05/26 11:59:20;;;;;;;23.38;15.48;;;23.50;46.90;;;;;;7367888;19;20386;-75
2023/05/26 12:01:47;;;;;;;11.93;3.67;;;24.00;46.60;;;;;;7369951;19;20086;-76
2023/05/26 12:04:13;;;;;;;19.80;11.18;;;23.80;46.50;;;;;;7371069;19;20018;-77
2023/05/26 12:06:42;;;;;;;21.25;10.85;;;24.00;46.60;;;;;;7369400;19;20871;-76
2023/05/26 12:09:21;;;;;;;15.98;5.88;;;24.10;46.30;;;;;;7371010;19;20031;-77
2023/05/26 12:11:50;;;;;;;18.40;8.55;;;23.90;45.70;;;;;;7373617;19;20014;-72
2023/05/26 12:14:17;;;;;;;15.57;5.45;;;23.90;46.10;;;;;;7372606;19;20047;-72
2023/05/26 12:16:47;;;;;;;11.52;6.80;;;23.90;45.70;;;;;;7370125;19;20022;-75
2023/05/26 12:19:18;;;;;;;22.23;5.38;;;23.80;45.70;;;;;;7371622;19;20014;-70
2023/05/26 12:21:59;;;;;;;16.80;5.72;;;23.50;44.40;;;;;;7376365;19;20062;-75
2023/05/26 12:24:34;;;;;;;17.98;6.03;;;23.70;45.00;;;;;;7375174;19;20022;-74
2023/05/26 12:27:11;;;;;;;20.50;11.30;;;23.80;44.60;;;;;;7370619;19;20044;-74
2023/05/26 12:29:42;;;;;;;24.80;8.38;;;23.90;45.20;;;;;;7373581;19;20017;-73
2023/05/26 12:32:10;;;;;;;14.40;4.87;;;24.00;45.60;;;;;;7370962;19;20074;-75
2023/05/26 12:34:38;;;;;;;17.33;7.97;;;23.90;45.10;;;;;;7370831;19;20057;-71
2023/05/26 12:37:05;;;;;;;19.50;10.32;;;23.90;44.30;;;;;;7368478;19;20025;-70
2023/05/26 12:39:32;;;;;;;17.60;6.63;;;24.30;45.30;;;;;;7368122;19;20022;-69
2023/05/26 12:42:00;;;;;;;11.68;4.28;;;24.60;44.60;;;;;;7369588;19;20006;-68
2023/05/26 12:44:26;;;;;;;14.90;5.35;;;24.30;44.60;;;;;;7369876;19;20017;-72
2023/05/26 12:46:54;;;;;;;17.00;4.40;;;24.00;44.60;;;;;;7370908;19;20025;-72
2023/05/26 12:49:21;;;;;;;17.55;4.68;;;24.00;45.90;;;;;;7373787;19;20057;-69
2023/05/26 12:51:50;;;;;;;13.85;4.55;;;24.20;45.90;;;;;;7369989;19;20378;-67
2023/05/26 12:54:17;;;;;;;100.28;89.75;;;23.70;45.10;;;;;;7368916;19;20814;-70
2023/05/26 12:56:43;;;;;;;19.23;6.95;;;23.70;45.50;;;;;;7366388;19;20019;-69
2023/05/26 12:59:10;;;;;;;17.23;7.78;;;23.90;45.40;;;;;;7365778;19;20018;-69
2023/05/26 13:01:37;;;;;;;17.50;6.68;;;24.30;45.70;;;;;;7369867;19;20014;-70
2023/05/26 13:04:03;;;;;;;19.30;8.07;;;24.50;44.20;;;;;;7368280;19;20029;-70
2023/05/26 13:06:30;;;;;;;15.45;6.85;;;24.80;44.70;;;;;;7369216;19;20023;-70
2023/05/26 13:08:57;;;;;;;14.80;7.65;;;24.80;44.80;;;;;;7366091;19;20023;-70
2023/05/26 13:11:23;;;;;;;15.20;7.28;;;24.80;44.50;;;;;;7376710;19;20018;-70
2023/05/26 13:13:50;;;;;;;17.35;7.55;;;25.10;44.60;;;;;;7378014;19;20018;-71
2023/05/26 13:16:18;;;;;;;15.25;5.80;;;25.00;44.00;;;;;;7377835;19;20018;-70
2023/05/26 13:18:45;;;;;;;21.60;6.20;;;24.30;43.70;;;;;;7377013;19;20015;-69
2023/05/26 13:21:11;;;;;;;15.13;5.95;;;24.40;44.10;;;;;;7379513;19;20055;-69
2023/05/26 13:23:37;;;;;;;15.75;6.03;;;24.30;44.20;;;;;;7385388;19;20851;-69